Milwaukee, WI (53201)

11:45 AM CDT on August 31, 2015 (GMT -0500)
Milwaukee Harbor | | Change Station
CLOSE
Current Station
Personal Weather Station
Location: Milwaukee, WI
Elevation: 591 ft
Nearby Weather Stations

Elev 591 ft 43.02 °N, 87.91 °W | Updated 29 seconds ago

Partly Cloudy
Partly Cloudy
76.6 °F
Feels Like 78 °F
N
0.9
Wind Variable Wind from SSW
Gusts 2.5 mph

Today
High -- | Low -- °F
--% Chance of Precip.
Yesterday
High -- | Low -- °F
Precip. -- in
6:14 AM 7:28 PM
Waning Gibbous, 94% visible
Pressure 30.08 in
Visibility 10.0 miles
Clouds Overcast 1700 ft
Heat Index 78 °F
Dew Point 67 °F
Humidity 71%
Rainfall 0.00 in
Snow Depth Not available.
UV 4.0 out of 12
Pollen 9.30 out of 12
Air Quality Not available.
Flu Activity Not available.
METAR KMKE 311552Z 28006KT 10SM OVC017 23/18 A3008 RMK AO2 SLP184 T02280183
Pressure 30.08 in
Visibility 10.0 miles
Clouds Overcast 1700 ft
Heat Index 78 °F
Dew Point 67 °F
Humidity 71%
Rainfall 0.00 in
Snow Depth Not available.
UV 4.0 out of 12
Pollen 9.30 out of 12
Air Quality Not available.
Flu Activity Not available.
METAR KMKE 311552Z 28006KT 10SM OVC017 23/18 A3008 RMK AO2 SLP184 T02280183

10-Day Weather Forecast

×

Almanac

Astronomy

Aug. 31, 2015 Rise Set
Actual Time
Civil Twilight
Nautical Twilight
Astronomical Twilight
Moon
Length of Visible Light
Length of Day
Tomorrow will be .
, % of the Moon is Illuminated

Today's Extremes

State Highs State Lows

Community

WunderPhotos

Upload Photos

1,851,307 photos uploaded!

WunderBlogs® & News

Nearby

Air Quality

  Air Quality AQ Index Pollutant
Not available.

Snow Depth

Station Depth Elevation

Earthquake Activity

City Distance Mag. Time & Date
Minimum magnitude displayed is 2.5.

Coastal Water Temperatures

Place Temperature

Stations

Nearby Weather Stations

Station Location Temp. Windchill Dew Point Humidity Wind Precip. Elev Updated Type